TAF Text Data
IDs:
Format:
Raw Decoded Include METAR

Data at: 1430 UTC 10 Jul 2020

KBGR 101338Z 1014/1112 VRB03KT P6SM BKN005
  FM101500 16004KT P6SM SCT035
  FM110200 16004KT P6SM OVC022
  FM110400 15004KT P6SM OVC009
  FM110700 14006KT 2SM -SHRA BR OVC004 WS020/17035KT